Latest Coastal Weather Observations for Marion Reef

IDQ60701

Issued at 10:21 am EST Wednesday 28 June 2017 (issued every 10 minutes, with the page automatically refreshed every 10 minutes)

About coastal observations | Map of coastal stations | Coastal observations for QLD | Marine services | Other Formats
Station Details ID: 200704 Name: MARION REEF Lat: -19.10 Lon: 152.39 Height: 2.0 m
Data from the previous 72 hours. | See also: Recent months for locations in Queensland
Date/Time
EST
Temp
°C
Wind Pressure Rain since
9am
mm
Weather Cloud Vis
km
Sea
Height
m
Swell
Dir  Spd
kts
Gust
kts
hPa Trend Height
m
Period
s
Dir
28/10:00am 24.1 E 22 26 1019.4 - - - - - - - - -
28/09:30am 24.2 E 22 26 1019.5 - - - - - - - - -
28/09:00am 24.2 E 21 25 1019.5 - - - - - - - - -
28/08:30am 24.0 E 21 24 1019.5 - - - - - - - - -
28/08:00am 24.2 E 22 25 1019.2 - - - - - - - - -
28/07:30am 23.9 ESE 22 27 1018.9 - - - - - - - - -
28/07:00am 24.1 E 21 26 1018.7 - - - - - - - - -
28/06:30am 23.8 ESE 21 25 1018.5 - - - - - - - - -
28/06:00am 23.6 E 23 26 1018.2 - - - - - - - - -
28/05:30am 23.7 E 24 28 1018.0 - - - - - - - - -
28/05:00am 24.2 E 22 25 1017.7 - - - - - - - - -
28/04:30am 23.9 ESE 23 27 1017.7 - - - - - - - - -
28/04:00am 24.1 E 23 27 1017.8 - - - - - - - - -
28/03:30am 23.9 E 23 26 1018.1 - - - - - - - - -
28/03:00am 23.9 ESE 23 27 1018.1 - - - - - - - - -
28/02:30am 24.1 E 23 27 1018.2 - - - - - - - - -
28/02:00am 24.1 ESE 23 27 1018.5 - - - - - - - - -
28/01:30am 24.0 ESE 25 30 1018.8 - - - - - - - - -
28/01:00am 24.1 ESE 22 26 1018.8 - - - - - - - - -
28/12:30am 23.9 ESE 23 26 1019.2 - - - - - - - - -
28/12:00am 23.8 ESE 21 26 1019.0 - - - - - - - - -
 
Date/Time
EST
Temp
°C
Wind Pressure Rain since
9am
mm
Weather Cloud Vis
km
Sea
Height
m
Swell
Dir  Spd
kts
Gust
kts
hPa Trend Height
m
Period
s
Dir
27/11:30pm 23.8 ESE 24 27 1019.2 - - - - - - - - -
27/11:00pm 23.7 ESE 24 27 1019.3 - - - - - - - - -
27/10:30pm 23.9 ESE 23 28 1019.3 - - - - - - - - -
27/10:00pm 24.0 ESE 23 27 1019.3 - - - - - - - - -
27/09:30pm 23.9 ESE 23 26 1019.6 - - - - - - - - -
27/09:00pm 23.9 ESE 23 26 1019.4 - - - - - - - - -
27/08:30pm 24.1 ESE 25 28 1019.4 - - - - - - - - -
27/08:00pm 23.4 SE 22 29 1019.4 - - - - - - - - -
27/07:30pm 23.8 ESE 24 28 1019.3 - - - - - - - - -
27/07:00pm 24.0 ESE 22 28 1018.9 - - - - - - - - -
27/06:30pm 24.0 ESE 24 29 1018.9 - - - - - - - - -
27/06:00pm 24.1 ESE 21 24 1018.6 - - - - - - - - -
27/05:30pm 24.0 ESE 23 26 1018.3 - - - - - - - - -
27/05:00pm 24.2 ESE 23 27 1018.0 - - - - - - - - -
27/04:30pm 24.1 ESE 22 27 1017.7 - - - - - - - - -
27/04:00pm 24.3 ESE 22 27 1017.4 - - - - - - - - -
27/03:30pm 24.0 ESE 22 26 1017.2 - - - - - - - - -
27/03:00pm 24.2 ESE 21 24 1017.1 - - - - - - - - -
27/02:30pm 24.1 ESE 21 24 1017.3 - - - - - - - - -
27/02:00pm 24.2 ESE 21 24 1017.3 - - - - - - - - -
27/01:30pm 24.2 ESE 20 22 1017.7 - - - - - - - - -
27/01:00pm 24.1 ESE 22 25 1017.9 - - - - - - - - -
27/12:30pm 24.2 ESE 22 26 1018.2 - - - - - - - - -
27/12:00pm 24.2 ESE 23 26 1018.5 - - - - - - - - -
27/11:30am 24.1 ESE 21 25 1019.0 - - - - - - - - -
27/11:00am 23.9 SE 20 22 1019.1 - - - - - - - - -
27/10:30am 24.0 SE 19 23 1019.4 - - - - - - - - -
27/10:00am 24.1 SE 18 21 1019.4 - - - - - - - - -
27/09:30am 24.0 ESE 20 24 1019.4 - - - - - - - - -
27/09:00am 24.1 ESE 19 22 1019.2 - - - - - - - - -
27/08:30am 23.9 ESE 17 21 1019.2 - - - - - - - - -
27/08:00am 23.8 ESE 18 21 1018.8 - - - - - - - - -
27/07:30am 23.8 ESE 17 21 1018.6 - - - - - - - - -
27/07:00am 23.7 ESE 18 22 1018.3 - - - - - - - - -
27/06:30am 23.8 ESE 19 22 1018.1 - - - - - - - - -
27/06:00am 23.5 ESE 19 23 1017.7 - - - - - - - - -
27/05:30am 23.5 ESE 16 20 1017.7 - - - - - - - - -
27/05:00am 23.7 ESE 17 19 1017.6 - - - - - - - - -
27/04:30am 23.6 ESE 18 21 1017.5 - - - - - - - - -
27/04:00am 23.5 ESE 18 21 1017.6 - - - - - - - - -
27/03:30am 23.7 ESE 19 22 1017.8 - - - - - - - - -
27/03:00am 23.7 ESE 18 22 1017.7 - - - - - - - - -
27/02:30am 23.7 ESE 19 21 1018.0 - - - - - - - - -
27/02:00am 23.7 ESE 18 21 1018.1 - - - - - - - - -
27/01:30am 23.8 ESE 19 22 1018.4 - - - - - - - - -
27/01:00am 23.9 ESE 20 23 1018.5 - - - - - - - - -
27/12:30am 24.0 ESE 20 23 1018.9 - - - - - - - - -
27/12:00am 23.9 ESE 20 25 1018.6 - - - - - - - - -
 
Date/Time
EST
Temp
°C
Wind Pressure Rain since
9am
mm
Weather Cloud Vis
km
Sea
Height
m
Swell
Dir  Spd
kts
Gust
kts
hPa Trend Height
m
Period
s
Dir
26/11:30pm 23.8 ESE 19 23 1018.9 - - - - - - - - -
26/11:00pm 23.8 ESE 19 23 1019.2 - - - - - - - - -
26/10:30pm 23.9 ESE 19 24 1019.2 - - - - - - - - -
26/10:00pm 23.9 ESE 18 23 1019.3 - - - - - - - - -
26/09:30pm 23.8 E 19 22 1019.4 - - - - - - - - -
26/09:00pm 23.9 E 19 22 1019.1 - - - - - - - - -
26/08:30pm 23.9 ESE 19 22 1018.9 - - - - - - - - -
26/08:00pm 23.7 ESE 16 21 1018.7 - - - - - - - - -
26/07:30pm 23.6 ESE 16 19 1018.6 - - - - - - - - -
26/07:00pm 23.8 SE 16 18 1018.3 - - - - - - - - -
26/06:30pm 24.0 ESE 17 20 1017.9 - - - - - - - - -
26/06:00pm 23.7 ESE 19 22 1017.6 - - - - - - - - -
26/05:30pm 23.8 SE 19 22 1017.3 - - - - - - - - -
26/05:00pm 23.8 ESE 19 21 1017.0 - - - - - - - - -
26/04:30pm 24.0 SE 20 22 1017.1 - - - - - - - - -
26/04:00pm 24.2 ESE 18 21 1016.8 - - - - - - - - -
26/03:30pm 24.3 SE 17 21 1016.7 - - - - - - - - -
26/03:00pm 23.9 ESE 15 19 1016.5 - - - - - - - - -
26/02:30pm 24.1 ESE 16 19 1016.6 - - - - - - - - -
26/02:00pm 23.9 ESE 14 19 1016.6 - - - - - - - - -
26/01:30pm 24.0 E 15 19 1017.1 - - - - - - - - -
26/01:00pm 24.0 ESE 16 19 1017.1 - - - - - - - - -
26/12:30pm 23.7 E 17 21 1017.6 - - - - - - - - -
26/12:00pm 23.6 ESE 18 21 1017.7 - - - - - - - - -
26/11:30am 23.9 ESE 15 20 1018.3 - - - - - - - - -
26/11:00am 23.9 ESE 14 18 1018.4 - - - - - - - - -
26/10:30am 23.7 ESE 17 21 1018.5 - - - - - - - - -
26/10:00am 23.8 ESE 18 21 1018.4 - - - - - - - - -
26/09:30am 23.4 SE 18 22 1018.7 - - - - - - - - -
26/09:00am 23.5 SE 17 20 1018.4 - - - - - - - - -
26/08:30am 23.8 SE 16 20 1018.3 - - - - - - - - -
26/08:00am 23.6 SE 14 18 1018.0 - - - - - - - - -
26/07:30am 23.3 ESE 15 19 1017.7 - - - - - - - - -
26/07:00am 23.3 ESE 16 24 1017.4 - - - - - - - - -
26/06:30am 23.4 SE 15 20 1017.0 - - - - - - - - -
26/06:00am 23.1 ESE 14 18 1016.7 - - - - - - - - -
26/05:30am 23.4 SE 16 19 1016.8 - - - - - - - - -
26/05:00am 23.2 SE 14 16 1016.4 - - - - - - - - -
26/04:30am 23.2 ESE 15 23 1016.4 - - - - - - - - -
26/04:00am 23.3 ESE 11 16 1016.3 - - - - - - - - -
26/03:30am 23.2 ESE 18 21 1016.2 - - - - - - - - -
26/03:00am 23.6 ESE 17 20 1016.1 - - - - - - - - -
26/02:30am 23.6 ESE 16 20 1016.4 - - - - - - - - -
26/02:00am 23.5 ESE 16 19 1016.3 - - - - - - - - -
26/01:30am 23.5 SE 16 21 1016.6 - - - - - - - - -
26/01:00am 23.4 SE 15 19 1016.8 - - - - - - - - -
26/12:30am 23.4 SE 18 22 1017.2 - - - - - - - - -
26/12:00am 23.5 ESE 18 21 1017.2 - - - - - - - - -
 
Date/Time
EST
Temp
°C
Wind Pressure Rain since
9am
mm
Weather Cloud Vis
km
Sea
Height
m
Swell
Dir  Spd
kts
Gust
kts
hPa Trend Height
m
Period
s
Dir
25/11:30pm 23.6 SE 17 22 1017.3 - - - - - - - - -
25/11:00pm 23.7 ESE 15 19 1017.4 - - - - - - - - -
25/10:30pm 23.7 ESE 17 20 1017.6 - - - - - - - - -
25/10:00pm 23.8 ESE 19 22 1017.5 - - - - - - - - -
25/09:30pm 23.6 ESE 18 22 1017.5 - - - - - - - - -
25/09:00pm 23.2 ESE 16 22 1017.4 - - - - - - - - -
25/08:30pm 23.5 ESE 18 21 1017.2 - - - - - - - - -
25/08:00pm 22.7 ESE 18 25 1016.8 - - - - - - - - -
25/07:30pm 23.7 ESE 18 22 1016.7 - - - - - - - - -
25/07:00pm 23.7 ESE 17 22 1016.3 - - - - - - - - -
25/06:30pm 23.5 ESE 17 22 1016.2 - - - - - - - - -
25/06:00pm 23.0 ESE 17 23 1015.8 - - - - - - - - -
25/05:30pm 21.9 ESE 13 17 1015.8 - - - - - - - - -
25/05:00pm 22.0 E 16 21 1015.6 - - - - - - - - -
25/04:30pm 21.8 E 15 19 1015.6 - - - - - - - - -
25/04:13pm 21.3 E 20 23 1015.5 - - - - - - - - -
25/04:00pm 22.0 ESE 15 21 1015.3 - - - - - - - - -
25/03:30pm 21.5 SE 17 25 1015.3 - - - - - - - - -
25/03:00pm 22.3 SE 15 19 1015.2 - - - - - - - - -
25/02:30pm 20.7 SE 13 21 1015.5 - - - - - - - - -
25/02:00pm 20.5 SSE 13 16 1015.5 - - - - - - - - -
25/01:30pm 20.5 E 16 21 1015.7 - - - - - - - - -
25/01:00pm 21.4 SSE 18 21 1015.6 - - - - - - - - -
25/12:30pm 22.2 SE 16 19 1016.0 - - - - - - - - -
25/12:00pm 22.6 SE 17 22 1016.2 - - - - - - - - -
25/11:30am 22.1 SE 17 20 1017.0 - - - - - - - - -
25/11:00am 22.2 ESE 17 21 1016.9 - - - - - - - - -
25/10:30am 22.5 SE 18 21 1017.3 - - - - - - - - -

Other Formats:

Comma delimited format used in spreadsheet applications
http://www.bom.gov.au/fwo/IDQ60701/IDQ60701.94298.axf

JavaScript Object Notation format (JSON) in row-major order
http://www.bom.gov.au/fwo/IDQ60701/IDQ60701.94298.json